createdAt,value
2018-06-03T00:00:59.091Z,19.50
2018-06-03T00:03:31.535Z,19.40
2018-06-03T00:06:04.003Z,19.40
2018-06-03T00:08:36.699Z,19.40
2018-06-03T00:11:09.220Z,19.40
2018-06-03T00:13:41.760Z,19.40
2018-06-03T00:16:14.760Z,19.40
2018-06-03T00:18:47.176Z,19.40
2018-06-03T00:21:31.166Z,19.40
2018-06-03T00:24:03.706Z,19.40
2018-06-03T00:26:36.157Z,19.40
2018-06-03T00:29:08.589Z,19.40
2018-06-03T00:31:41.028Z,19.40
2018-06-03T00:34:13.747Z,19.40
2018-06-03T00:36:46.980Z,19.50
2018-06-03T00:39:19.393Z,19.50
2018-06-03T00:41:51.816Z,19.40
2018-06-03T00:44:24.639Z,19.40
2018-06-03T00:46:57.638Z,19.40
2018-06-03T00:49:30.403Z,19.40
2018-06-03T00:52:02.979Z,19.40
2018-06-03T00:54:35.815Z,19.40
2018-06-03T00:57:09.904Z,19.40
2018-06-03T00:59:42.436Z,19.40
2018-06-03T01:02:14.893Z,19.40
2018-06-03T01:04:47.407Z,19.40
2018-06-03T01:07:19.982Z,19.40
2018-06-03T01:09:52.378Z,19.40
2018-06-03T01:12:24.819Z,19.40
2018-06-03T01:14:57.194Z,19.40
2018-06-03T01:17:29.717Z,19.40
2018-06-03T01:20:02.148Z,19.40
2018-06-03T01:22:34.586Z,19.40
2018-06-03T01:25:07.130Z,19.40
2018-06-03T01:27:39.547Z,19.40
2018-06-03T01:30:12.014Z,19.40
2018-06-03T01:32:44.500Z,19.40
2018-06-03T01:35:17.057Z,19.40
2018-06-03T01:37:49.665Z,19.30
2018-06-03T01:40:22.084Z,19.30
2018-06-03T01:42:54.507Z,19.30
2018-06-03T01:45:26.898Z,19.40
2018-06-03T01:47:59.294Z,19.40
2018-06-03T01:53:04.392Z,19.40
2018-06-03T01:55:36.786Z,19.40
2018-06-03T01:58:09.665Z,19.40
2018-06-03T02:00:42.333Z,19.50
2018-06-03T02:03:14.761Z,19.50
2018-06-03T02:05:47.207Z,19.40
2018-06-03T02:08:19.859Z,19.30
2018-06-03T02:10:52.422Z,19.30
2018-06-03T02:13:25.727Z,19.40
2018-06-03T02:18:30.611Z,19.40
2018-06-03T02:21:03.071Z,19.40
2018-06-03T02:23:35.558Z,19.40
2018-06-03T02:26:08.070Z,19.30
2018-06-03T02:28:40.515Z,19.30
2018-06-03T02:31:12.946Z,19.20
2018-06-03T02:33:47.134Z,19.10
2018-06-03T02:36:19.558Z,19.10
2018-06-03T02:38:51.998Z,19.20
2018-06-03T02:41:24.432Z,19.20
2018-06-03T02:43:57.089Z,19.10
2018-06-03T02:46:29.489Z,19.10
2018-06-03T02:51:34.698Z,19.10
2018-06-03T02:54:08.376Z,19.10
2018-06-03T02:56:40.911Z,19.10
2018-06-03T02:59:13.392Z,19.10
2018-06-03T03:01:45.796Z,19.00
2018-06-03T03:04:18.193Z,19.20
2018-06-03T03:06:50.695Z,19.10
2018-06-03T03:09:23.123Z,19.10
2018-06-03T03:11:55.569Z,19.10
2018-06-03T03:17:00.611Z,19.00
2018-06-03T03:19:33.015Z,19.00
2018-06-03T03:22:05.402Z,19.00
2018-06-03T03:24:37.799Z,19.10
2018-06-03T03:27:10.227Z,19.10
2018-06-03T03:29:42.789Z,19.10
2018-06-03T03:32:15.946Z,19.10
2018-06-03T03:34:48.533Z,19.20
2018-06-03T03:37:20.945Z,19.20
2018-06-03T03:39:53.403Z,19.20
2018-06-03T03:42:25.902Z,19.20
2018-06-03T03:44:58.467Z,19.20
2018-06-03T03:47:31.190Z,19.30
2018-06-03T03:50:03.815Z,19.20
2018-06-03T03:52:36.232Z,19.20
2018-06-03T03:55:10.049Z,19.20
2018-06-03T03:57:42.449Z,19.20
2018-06-03T04:00:14.857Z,19.30
2018-06-03T04:02:47.267Z,19.30
2018-06-03T04:05:19.688Z,19.30
2018-06-03T04:07:52.204Z,19.20
2018-06-03T04:10:25.640Z,19.30
2018-06-03T04:12:58.031Z,19.40
2018-06-03T04:15:30.591Z,19.30
2018-06-03T04:18:03.019Z,19.40
2018-06-03T04:23:08.652Z,19.50
2018-06-03T04:25:41.083Z,19.50
2018-06-03T04:28:13.578Z,19.50
2018-06-03T04:30:45.962Z,19.40
2018-06-03T04:33:18.475Z,19.30
2018-06-03T04:35:50.918Z,19.40
2018-06-03T04:38:23.303Z,19.40
2018-06-03T04:40:55.739Z,19.30
2018-06-03T04:43:28.211Z,19.30
2018-06-03T04:46:00.698Z,19.40
2018-06-03T04:48:33.115Z,19.30
2018-06-03T04:51:05.513Z,19.20
2018-06-03T04:53:37.963Z,19.30
2018-06-03T04:56:10.406Z,19.20
2018-06-03T04:58:42.879Z,19.20
2018-06-03T05:01:15.951Z,19.20
2018-06-03T05:03:48.344Z,19.20
2018-06-03T05:06:20.903Z,19.30
2018-06-03T05:08:53.278Z,19.40
2018-06-03T05:11:26.146Z,19.30
2018-06-03T05:13:58.542Z,19.10
2018-06-03T05:16:31.640Z,19.20
2018-06-03T05:21:36.765Z,19.20
2018-06-03T05:24:09.895Z,19.30
2018-06-03T05:26:42.358Z,19.20
2018-06-03T05:31:47.924Z,19.30
2018-06-03T05:34:20.490Z,19.30
2018-06-03T05:39:25.468Z,19.40
2018-06-03T05:41:57.872Z,19.50
2018-06-03T05:44:30.473Z,19.60
2018-06-03T05:47:02.857Z,19.60
2018-06-03T05:52:07.637Z,19.40
2018-06-03T05:54:40.088Z,19.30
2018-06-03T05:57:12.595Z,19.30
2018-06-03T05:59:45.046Z,19.40
2018-06-03T06:02:17.553Z,19.40
2018-06-03T06:04:50.130Z,19.30
2018-06-03T06:07:22.911Z,19.40
2018-06-03T06:09:56.132Z,19.40
2018-06-03T06:12:28.681Z,19.50
2018-06-03T06:15:01.243Z,19.50
2018-06-03T06:17:33.751Z,19.50
2018-06-03T06:20:06.302Z,19.60
2018-06-03T06:22:39.074Z,19.60
2018-06-03T06:25:11.521Z,19.70
2018-06-03T06:27:44.302Z,19.70
2018-06-03T06:30:17.115Z,19.60
2018-06-03T06:32:49.538Z,19.70
2018-06-03T06:35:22.063Z,19.70
2018-06-03T06:37:55.227Z,19.60
2018-06-03T06:40:27.684Z,19.70
2018-06-03T06:43:00.145Z,19.70
2018-06-03T06:45:32.725Z,19.70
2018-06-03T06:48:05.359Z,19.70
2018-06-03T06:50:38.068Z,19.80
2018-06-03T06:53:11.206Z,19.90
2018-06-03T06:55:43.825Z,19.80
2018-06-03T06:58:16.687Z,19.80
2018-06-03T07:00:50.074Z,19.90
2018-06-03T07:03:22.735Z,19.90
2018-06-03T07:05:55.130Z,19.90
2018-06-03T07:08:27.770Z,19.90
2018-06-03T07:11:00.177Z,19.90
2018-06-03T07:13:32.702Z,19.80
2018-06-03T07:16:05.203Z,19.70
2018-06-03T07:18:37.907Z,19.80
2018-06-03T07:21:10.424Z,19.90
2018-06-03T07:26:15.723Z,19.90
2018-06-03T07:28:48.207Z,19.90
2018-06-03T07:31:21.149Z,19.80
2018-06-03T07:33:53.587Z,19.90
2018-06-03T07:36:26.027Z,19.90
2018-06-03T07:38:58.573Z,19.80
2018-06-03T07:41:30.988Z,19.90
2018-06-03T07:44:03.768Z,19.90
2018-06-03T07:46:36.358Z,19.80
2018-06-03T07:49:08.891Z,19.70
2018-06-03T07:51:41.537Z,19.60
2018-06-03T07:54:14.861Z,19.70
2018-06-03T07:56:47.350Z,19.60
2018-06-03T07:59:20.078Z,19.60
2018-06-03T08:01:52.654Z,19.60
2018-06-03T08:04:25.184Z,19.70
2018-06-03T08:06:57.894Z,19.70
2018-06-03T08:09:30.888Z,19.80
2018-06-03T08:12:03.578Z,19.60
2018-06-03T08:14:36.037Z,19.60
2018-06-03T08:17:08.652Z,19.70
2018-06-03T08:19:41.394Z,19.60
2018-06-03T08:22:14.582Z,19.60
2018-06-03T08:24:47.303Z,19.60
2018-06-03T08:27:20.032Z,19.50
2018-06-03T08:32:25.197Z,19.40
2018-06-03T08:34:58.473Z,19.40
2018-06-03T08:40:03.628Z,19.40
2018-06-03T08:42:36.129Z,19.50
2018-06-03T08:45:08.696Z,19.50
2018-06-03T08:47:41.113Z,19.60
2018-06-03T08:50:15.723Z,19.70
2018-06-03T08:52:48.535Z,19.70
2018-06-03T08:55:21.287Z,19.80
2018-06-03T08:57:53.865Z,19.70
2018-06-03T09:00:26.785Z,19.70
2018-06-03T09:02:59.391Z,19.70
2018-06-03T09:05:32.134Z,19.70
2018-06-03T09:08:04.731Z,19.70
2018-06-03T09:10:37.478Z,19.60
2018-06-03T09:13:09.982Z,19.80
2018-06-03T09:15:42.679Z,19.70
2018-06-03T09:18:15.176Z,19.70
2018-06-03T09:20:49.770Z,19.80
2018-06-03T09:23:22.329Z,19.80
2018-06-03T09:25:54.794Z,19.80
2018-06-03T09:28:27.306Z,19.60
2018-06-03T09:31:06.058Z,19.60
2018-06-03T09:33:38.596Z,19.60
2018-06-03T09:36:11.101Z,19.60
2018-06-03T09:38:44.319Z,19.40
2018-06-03T09:41:17.679Z,19.40
2018-06-03T09:43:50.787Z,19.30
2018-06-03T09:46:23.346Z,19.30
2018-06-03T09:48:56.235Z,19.30
2018-06-03T09:51:28.710Z,19.30
2018-06-03T09:54:01.199Z,19.40
2018-06-03T09:56:33.581Z,19.50
2018-06-03T10:01:38.729Z,19.70
2018-06-03T10:04:11.230Z,19.90
2018-06-03T10:06:43.841Z,20.00
2018-06-03T10:09:17.633Z,20.20
2018-06-03T10:11:50.427Z,20.30
2018-06-03T10:14:23.516Z,20.10
2018-06-03T10:16:56.291Z,20.10
2018-06-03T10:19:29.026Z,20.10
2018-06-03T10:22:02.600Z,20.20
2018-06-03T10:24:36.274Z,20.30
2018-06-03T10:27:08.747Z,20.30
2018-06-03T10:29:41.171Z,20.40
2018-06-03T10:32:13.882Z,20.50
2018-06-03T10:34:46.569Z,20.70
2018-06-03T10:37:19.063Z,20.70
2018-06-03T10:39:51.555Z,20.50
2018-06-03T10:42:24.159Z,20.30
2018-06-03T10:44:56.775Z,20.30
2018-06-03T10:47:29.242Z,20.30
2018-06-03T10:50:01.696Z,20.30
2018-06-03T10:52:34.143Z,20.40
2018-06-03T10:55:06.810Z,20.40
2018-06-03T10:57:39.240Z,20.30
2018-06-03T11:00:11.755Z,20.20
2018-06-03T11:02:44.248Z,20.30
2018-06-03T11:05:16.958Z,20.30
2018-06-03T11:07:49.474Z,20.50
2018-06-03T11:10:22.000Z,20.80
2018-06-03T11:12:54.599Z,20.70
2018-06-03T11:15:27.192Z,20.90
2018-06-03T11:17:59.917Z,20.80
2018-06-03T11:20:32.779Z,20.90
2018-06-03T11:23:05.520Z,20.90
2018-06-03T11:25:38.691Z,21.10
2018-06-03T11:28:11.392Z,21.20
2018-06-03T11:30:44.325Z,20.90
2018-06-03T11:33:17.508Z,21.10
2018-06-03T11:35:50.273Z,21.10
2018-06-03T11:38:22.754Z,21.30
2018-06-03T11:40:55.497Z,21.40
2018-06-03T11:43:28.053Z,21.50
2018-06-03T11:46:00.553Z,21.50
2018-06-03T11:48:33.012Z,21.40
2018-06-03T11:51:05.448Z,21.40
2018-06-03T11:53:37.917Z,21.50
2018-06-03T11:56:10.418Z,21.50
2018-06-03T11:58:54.581Z,21.60
2018-06-03T12:01:26.994Z,21.50
2018-06-03T12:03:59.743Z,21.50
2018-06-03T12:06:32.258Z,21.40
2018-06-03T12:09:05.863Z,21.40
2018-06-03T12:11:38.339Z,21.60
2018-06-03T12:14:10.842Z,21.70
2018-06-03T12:16:43.290Z,21.70
2018-06-03T12:19:15.919Z,21.40
2018-06-03T12:21:48.698Z,21.30
2018-06-03T12:24:21.387Z,21.50
2018-06-03T12:26:53.890Z,21.60
2018-06-03T12:29:26.396Z,21.60
2018-06-03T12:31:59.090Z,21.70
2018-06-03T12:34:31.622Z,21.80
2018-06-03T12:37:04.246Z,21.80
2018-06-03T12:39:36.785Z,21.70
2018-06-03T12:42:09.868Z,21.50
2018-06-03T12:44:42.378Z,21.50
2018-06-03T12:47:15.617Z,21.80
2018-06-03T12:49:48.193Z,21.90
2018-06-03T12:52:21.633Z,22.20
2018-06-03T12:54:54.191Z,22.00
2018-06-03T12:57:27.595Z,22.20
2018-06-03T13:00:00.093Z,22.20
2018-06-03T13:02:32.697Z,22.40
2018-06-03T13:05:06.255Z,22.30
2018-06-03T13:07:38.936Z,22.10
2018-06-03T13:10:11.550Z,22.20
2018-06-03T13:12:44.144Z,22.10
2018-06-03T13:15:16.807Z,21.90
2018-06-03T13:20:22.342Z,22.00
2018-06-03T13:22:55.260Z,22.10
2018-06-03T13:25:27.858Z,22.20
2018-06-03T13:28:00.506Z,22.20
2018-06-03T13:30:32.986Z,22.20
2018-06-03T13:33:05.646Z,22.30
2018-06-03T13:35:39.062Z,22.40
2018-06-03T13:38:11.965Z,22.50
2018-06-03T13:43:17.676Z,22.60
2018-06-03T13:45:50.384Z,22.50
2018-06-03T13:48:22.889Z,22.40
2018-06-03T13:53:28.393Z,22.70
2018-06-03T13:56:01.289Z,22.80
2018-06-03T13:58:34.329Z,22.80
2018-06-03T14:01:07.040Z,22.60
2018-06-03T14:03:40.441Z,22.70
2018-06-03T14:06:13.235Z,22.80
2018-06-03T14:08:45.984Z,22.90
2018-06-03T14:11:18.662Z,23.00
2018-06-03T14:13:51.729Z,22.80
2018-06-03T14:16:25.096Z,22.90
2018-06-03T14:18:57.876Z,22.80
2018-06-03T14:21:30.492Z,23.00
2018-06-03T14:24:03.083Z,23.00
2018-06-03T14:26:36.372Z,23.00
2018-06-03T14:29:08.978Z,23.20
2018-06-03T14:31:41.469Z,23.00
2018-06-03T14:34:14.629Z,23.00
2018-06-03T14:36:47.286Z,23.20
2018-06-03T14:39:19.876Z,23.20
2018-06-03T14:41:52.325Z,23.40
2018-06-03T14:44:25.293Z,23.50
2018-06-03T14:46:58.016Z,23.30
2018-06-03T14:49:30.667Z,23.50
2018-06-03T14:52:03.651Z,23.70
2018-06-03T14:54:36.183Z,23.80
2018-06-03T14:57:08.812Z,23.60
2018-06-03T14:59:41.445Z,23.50
2018-06-03T15:02:13.931Z,23.70
2018-06-03T15:04:47.042Z,23.70
2018-06-03T15:07:19.543Z,23.70
2018-06-03T15:09:52.145Z,23.90
2018-06-03T15:12:24.783Z,23.90
2018-06-03T15:14:57.398Z,24.00
2018-06-03T15:17:30.098Z,23.70
2018-06-03T15:20:02.859Z,23.70
2018-06-03T15:22:35.661Z,23.70
2018-06-03T15:25:09.822Z,23.60
2018-06-03T15:27:43.503Z,23.70
2018-06-03T15:30:16.088Z,23.70
2018-06-03T15:32:48.783Z,23.80
2018-06-03T15:35:21.695Z,23.80
2018-06-03T15:37:54.480Z,23.90
2018-06-03T15:40:27.393Z,23.80
2018-06-03T15:43:00.651Z,23.80
2018-06-03T15:45:34.394Z,23.80
2018-06-03T15:48:07.964Z,23.80
2018-06-03T15:50:40.424Z,23.80
2018-06-03T15:53:13.156Z,23.80
2018-06-03T15:55:45.740Z,23.70
2018-06-03T15:58:18.317Z,23.80
2018-06-03T16:00:51.110Z,24.00
2018-06-03T16:03:23.758Z,24.10
2018-06-03T16:05:56.409Z,24.20
2018-06-03T16:08:28.982Z,24.30
2018-06-03T16:13:34.502Z,24.60
2018-06-03T16:16:07.222Z,24.40
2018-06-03T16:21:12.333Z,24.40
2018-06-03T16:23:44.939Z,24.30
2018-06-03T16:26:17.484Z,24.20
2018-06-03T16:28:50.521Z,24.10
2018-06-03T16:31:23.419Z,24.30
2018-06-03T16:33:56.041Z,24.50
2018-06-03T16:36:28.694Z,24.50
2018-06-03T16:39:01.414Z,24.20
2018-06-03T16:41:34.133Z,24.10
2018-06-03T16:44:07.202Z,24.10
2018-06-03T16:46:39.864Z,24.10
2018-06-03T16:49:12.671Z,23.90
2018-06-03T16:51:45.243Z,23.80
2018-06-03T16:54:17.878Z,23.50
2018-06-03T16:56:50.697Z,23.60
2018-06-03T16:59:23.353Z,23.60
2018-06-03T17:04:29.161Z,23.70
2018-06-03T17:07:01.921Z,23.70
2018-06-03T17:09:34.556Z,23.80
2018-06-03T17:12:08.249Z,23.80
2018-06-03T17:14:40.840Z,23.70
2018-06-03T17:17:13.679Z,23.70
2018-06-03T17:19:46.225Z,23.70
2018-06-03T17:22:19.194Z,23.70
2018-06-03T17:24:51.957Z,23.70
2018-06-03T17:27:24.858Z,23.70
2018-06-03T17:29:59.119Z,23.70
2018-06-03T17:32:32.670Z,23.60
2018-06-03T17:35:05.439Z,23.40
2018-06-03T17:37:38.011Z,23.40
2018-06-03T17:40:10.635Z,23.50
2018-06-03T17:42:43.235Z,23.50
2018-06-03T17:45:16.095Z,23.50
2018-06-03T17:47:49.155Z,23.50
2018-06-03T17:50:21.835Z,23.40
2018-06-03T17:52:54.364Z,23.40
2018-06-03T17:55:27.170Z,23.40
2018-06-03T17:57:59.858Z,23.30
2018-06-03T18:00:32.481Z,23.30
2018-06-03T18:03:05.216Z,23.20
2018-06-03T18:05:38.844Z,23.10
2018-06-03T18:08:11.483Z,23.10
2018-06-03T18:10:44.481Z,23.10
2018-06-03T18:13:17.103Z,23.10
2018-06-03T18:15:49.708Z,23.00
2018-06-03T18:18:22.417Z,23.10
2018-06-03T18:20:55.381Z,22.90
2018-06-03T18:23:28.327Z,22.90
2018-06-03T18:26:01.008Z,22.90
2018-06-03T18:28:33.492Z,22.90
2018-06-03T18:31:06.821Z,22.90
2018-06-03T18:33:39.506Z,22.90
2018-06-03T18:36:12.258Z,22.80
2018-06-03T18:38:45.341Z,22.80
2018-06-03T18:41:18.098Z,22.80
2018-06-03T18:43:50.824Z,22.70
2018-06-03T18:46:23.486Z,22.70
2018-06-03T18:48:56.271Z,22.70
2018-06-03T18:51:30.376Z,22.70
2018-06-03T18:54:02.969Z,22.60
2018-06-03T18:59:08.237Z,22.50
2018-06-03T19:01:41.317Z,22.40
2018-06-03T19:04:14.928Z,22.50
2018-06-03T19:06:47.800Z,22.40
2018-06-03T19:09:20.618Z,22.40
2018-06-03T19:11:53.518Z,22.40
2018-06-03T19:14:26.316Z,22.40
2018-06-03T19:16:59.183Z,22.30
2018-06-03T19:19:31.902Z,22.20
2018-06-03T19:22:04.570Z,22.10
2018-06-03T19:27:10.880Z,22.10
2018-06-03T19:29:44.080Z,22.10
2018-06-03T19:32:17.422Z,22.10
2018-06-03T19:34:51.270Z,22.10
2018-06-03T19:42:28.541Z,22.00
2018-06-03T19:45:00.990Z,22.00
2018-06-03T19:47:33.564Z,21.90
2018-06-03T19:50:06.605Z,22.00
2018-06-03T19:52:39.294Z,21.80
2018-06-03T19:55:12.313Z,21.80
2018-06-03T19:57:45.537Z,21.80
2018-06-03T20:00:18.290Z,21.90
2018-06-03T20:02:50.906Z,21.90
2018-06-03T20:05:23.765Z,21.80
2018-06-03T20:07:56.706Z,21.70
2018-06-03T20:10:29.370Z,21.60
2018-06-03T20:13:01.952Z,21.70
2018-06-03T20:15:34.384Z,21.60
2018-06-03T20:18:06.829Z,21.60
2018-06-03T20:20:39.395Z,21.50
2018-06-03T20:23:11.799Z,21.50
2018-06-03T20:25:44.685Z,21.60
2018-06-03T20:28:17.534Z,21.60
2018-06-03T20:30:50.057Z,21.60
2018-06-03T20:33:22.912Z,21.50
2018-06-03T20:35:55.742Z,21.50
2018-06-03T20:38:28.439Z,21.50
2018-06-03T20:41:01.672Z,21.50
2018-06-03T20:43:34.268Z,21.40
2018-06-03T20:46:07.312Z,21.40
2018-06-03T20:48:39.760Z,21.30
2018-06-03T20:51:12.163Z,21.30
2018-06-03T20:53:44.667Z,21.30
2018-06-03T20:56:17.129Z,21.40
2018-06-03T20:58:50.334Z,21.30
2018-06-03T21:01:23.120Z,21.30
2018-06-03T21:03:55.630Z,21.20
2018-06-03T21:06:28.329Z,21.20
2018-06-03T21:09:00.792Z,21.10
2018-06-03T21:11:33.617Z,21.10
2018-06-03T21:14:06.262Z,21.10
2018-06-03T21:16:39.440Z,21.10
2018-06-03T21:19:11.894Z,21.00
2018-06-03T21:21:44.299Z,21.00
2018-06-03T21:24:16.811Z,20.90
2018-06-03T21:26:49.279Z,20.90
2018-06-03T21:29:21.887Z,20.90
2018-06-03T21:31:54.683Z,20.90
2018-06-03T21:34:27.170Z,20.80
2018-06-03T21:37:00.000Z,20.80
2018-06-03T21:39:33.023Z,20.80
2018-06-03T21:42:05.466Z,20.80
2018-06-03T21:47:10.404Z,20.80
2018-06-03T21:49:42.882Z,20.80
2018-06-03T21:52:15.522Z,20.80
2018-06-03T21:54:47.974Z,20.80
2018-06-03T21:57:20.873Z,20.70
2018-06-03T21:59:53.390Z,20.70
2018-06-03T22:02:25.891Z,20.60
2018-06-03T22:04:58.399Z,20.50
2018-06-03T22:07:31.661Z,20.60
2018-06-03T22:10:04.430Z,20.50
2018-06-03T22:12:37.042Z,20.50
2018-06-03T22:15:10.495Z,20.50
2018-06-03T22:17:42.906Z,20.50
2018-06-03T22:20:15.405Z,20.40
2018-06-03T22:22:48.302Z,20.50
2018-06-03T22:25:20.760Z,20.50
2018-06-03T22:27:53.205Z,20.50
2018-06-03T22:30:25.627Z,20.50
2018-06-03T22:32:58.144Z,20.40
2018-06-03T22:35:36.543Z,20.30
2018-06-03T22:38:09.014Z,20.30
2018-06-03T22:40:41.519Z,20.30
2018-06-03T22:43:14.023Z,20.20
2018-06-03T22:45:46.520Z,20.20
2018-06-03T22:48:18.978Z,20.10
2018-06-03T22:50:51.539Z,20.20
2018-06-03T22:53:24.190Z,20.20
2018-06-03T22:55:57.655Z,20.10
2018-06-03T23:01:03.098Z,20.10
2018-06-03T23:03:36.297Z,19.90
2018-06-03T23:06:08.889Z,19.90
2018-06-03T23:08:41.469Z,19.90
2018-06-03T23:11:14.158Z,19.90
2018-06-03T23:13:46.762Z,19.90
2018-06-03T23:16:19.355Z,19.90
2018-06-03T23:18:51.918Z,19.90
2018-06-03T23:21:24.786Z,19.90
2018-06-03T23:23:58.005Z,19.90
2018-06-03T23:26:31.111Z,19.90
2018-06-03T23:29:04.647Z,19.80
2018-06-03T23:31:37.560Z,19.60
2018-06-03T23:34:10.367Z,19.60
2018-06-03T23:36:42.942Z,19.70
2018-06-03T23:39:15.720Z,19.70
2018-06-03T23:41:48.272Z,19.70
2018-06-03T23:44:20.767Z,19.70
2018-06-03T23:46:53.220Z,19.70
2018-06-03T23:49:25.614Z,19.60
2018-06-03T23:51:58.359Z,19.60
2018-06-03T23:54:30.764Z,19.70
2018-06-03T23:57:03.460Z,19.70
2018-06-03T23:59:35.948Z,19.60
